Time,TemperatureF,DewpointF,PressureIn,WindDirection,WindDirectionDegrees,WindSpeedMPH,WindSpeedGustMPH,Humidity,HourlyPrecipIn,Conditions,Clouds,dailyrainin,SoftwareType,DateUTC
2013-04-18 00:01:00,46.7,45.3,29.90,East,98,9.0,16.0,95,0.00,,---,0.01,VWS V14.01,2013-04-18 04:01:00,
2013-04-18 00:31:00,47.2,45.8,29.91,West,277,2.0,16.0,95,0.00,,---,0.00,VWS V14.01,2013-04-18 04:31:00,
2013-04-18 01:01:00,47.5,45.9,29.86,ESE,117,13.0,18.0,94,0.00,,---,0.00,VWS V14.01,2013-04-18 05:01:00,
2013-04-18 01:16:00,47.1,45.5,29.86,ESE,117,12.0,19.0,94,0.00,,---,0.00,VWS V14.01,2013-04-18 05:16:00,
2013-04-18 01:31:00,46.9,45.3,29.85,ESE,117,12.0,18.0,94,0.00,,---,0.00,VWS V14.01,2013-04-18 05:31:00,
2013-04-18 01:46:00,46.6,45.0,29.84,ESE,106,11.0,23.0,94,0.00,,---,0.00,VWS V14.01,2013-04-18 05:46:00,
2013-04-18 02:01:00,46.6,45.0,29.84,ESE,111,7.0,19.0,94,0.00,,---,0.00,VWS V14.01,2013-04-18 06:01:00,
2013-04-18 02:31:00,46.9,45.3,29.81,SE,128,8.0,14.0,94,0.00,,---,0.00,VWS V14.01,2013-04-18 06:31:00,
2013-04-18 02:46:00,47.2,45.6,29.80,ESE,103,9.0,19.0,94,0.00,,---,0.00,VWS V14.01,2013-04-18 06:46:00,
2013-04-18 03:01:00,47.6,46.0,29.78,ESE,111,10.0,16.0,94,0.00,,---,0.00,VWS V14.01,2013-04-18 07:01:00,
2013-04-18 03:46:00,49.4,48.0,29.77,South,175,5.0,11.0,95,0.00,,---,0.00,VWS V14.01,2013-04-18 07:46:00,
2013-04-18 04:16:00,49.1,47.7,29.80,NW,321,4.0,11.0,95,0.01,,---,0.01,VWS V14.01,2013-04-18 08:16:00,
2013-04-18 04:31:00,49.1,47.7,29.79,North,9,5.0,7.0,95,0.01,,---,0.01,VWS V14.01,2013-04-18 08:31:00,
2013-04-18 04:46:00,49.0,47.6,29.76,East,82,2.0,8.0,95,0.01,,---,0.01,VWS V14.01,2013-04-18 08:46:00,
2013-04-18 05:16:00,49.2,47.8,29.73,East,82,3.0,5.0,95,0.00,,---,0.01,VWS V14.01,2013-04-18 09:16:00,
2013-04-18 05:31:00,49.5,48.4,29.72,East,82,1.0,5.0,96,0.00,,---,0.01,VWS V14.01,2013-04-18 09:31:00,
2013-04-18 05:46:00,50.2,49.1,29.71,East,82,3.0,5.0,96,0.00,,---,0.01,VWS V14.01,2013-04-18 09:46:00,
2013-04-18 06:01:00,50.8,49.7,29.69,ESE,103,4.0,9.0,96,0.00,,---,0.01,VWS V14.01,2013-04-18 10:01:00,
2013-04-18 06:16:00,52.0,50.9,29.68,ESE,115,4.0,9.0,96,0.00,,---,0.01,VWS V14.01,2013-04-18 10:16:00,
2013-04-18 06:31:00,53.0,51.9,29.68,SE,125,1.0,7.0,96,0.00,,---,0.01,VWS V14.01,2013-04-18 10:31:00,
2013-04-18 06:46:00,54.5,53.4,29.67,SE,144,8.0,8.0,96,0.00,,---,0.01,VWS V14.01,2013-04-18 10:46:00,
2013-04-18 07:16:00,58.3,56.6,29.66,South,186,4.0,10.0,94,0.00,,---,0.01,VWS V14.01,2013-04-18 11:16:00,
2013-04-18 07:31:00,59.3,57.3,29.65,SSW,198,3.0,10.0,93,0.00,,---,0.01,VWS V14.01,2013-04-18 11:31:00,
2013-04-18 07:46:00,61.2,59.2,29.66,SSW,198,3.0,16.0,93,0.00,,---,0.01,VWS V14.01,2013-04-18 11:46:00,
2013-04-18 08:01:00,62.4,59.7,29.65,South,178,5.0,14.0,91,0.00,,---,0.01,VWS V14.01,2013-04-18 12:01:00,
2013-04-18 08:16:00,63.3,60.3,29.64,South,182,3.0,15.0,90,0.00,,---,0.01,VWS V14.01,2013-04-18 12:16:00,
2013-04-18 08:31:00,64.7,61.4,29.62,SSE,167,7.0,17.0,89,0.00,,---,0.01,VWS V14.01,2013-04-18 12:31:00,
2013-04-18 08:46:00,66.0,62.0,29.62,SSE,167,10.0,22.0,87,0.00,,---,0.01,VWS V14.01,2013-04-18 12:46:00,
2013-04-18 09:01:00,66.5,62.2,29.61,SSW,201,6.0,15.0,86,0.00,,---,0.01,VWS V14.01,2013-04-18 13:01:00,
2013-04-18 09:31:00,67.5,63.2,29.60,South,171,7.0,15.0,86,0.00,,---,0.01,VWS V14.01,2013-04-18 13:31:00,
2013-04-18 10:01:00,68.8,63.8,29.59,SSW,198,7.0,20.0,84,0.00,,---,0.01,VWS V14.01,2013-04-18 14:01:00,
2013-04-18 10:16:00,68.6,63.6,29.58,SSW,195,7.0,25.0,84,0.00,,---,0.01,VWS V14.01,2013-04-18 14:16:00,
2013-04-18 10:31:00,68.9,63.5,29.56,SSW,200,9.0,19.0,83,0.00,,---,0.01,VWS V14.01,2013-04-18 14:31:00,
2013-04-18 10:46:00,69.4,64.0,29.54,SSW,193,6.0,27.0,83,0.00,,---,0.01,VWS V14.01,2013-04-18 14:46:00,
2013-04-18 11:01:00,69.4,63.7,29.56,SSW,197,12.0,28.0,82,0.00,,---,0.01,VWS V14.01,2013-04-18 15:01:00,
2013-04-18 11:16:00,69.5,62.3,29.58,South,186,15.0,24.0,78,0.00,,---,0.01,VWS V14.01,2013-04-18 15:16:00,
2013-04-18 11:46:00,66.2,60.5,29.61,SW,236,6.0,21.0,82,0.00,,---,0.01,VWS V14.01,2013-04-18 15:46:00,
2013-04-18 12:01:00,64.4,60.5,29.61,WSW,244,17.0,22.0,87,0.00,,---,0.01,VWS V14.01,2013-04-18 16:01:00,
2013-04-18 12:16:00,64.4,60.8,29.63,SW,223,5.0,20.0,88,0.00,,---,0.01,VWS V14.01,2013-04-18 16:16:00,
2013-04-18 12:31:00,64.4,60.8,29.62,SW,221,7.0,22.0,88,0.00,,---,0.01,VWS V14.01,2013-04-18 16:31:00,
2013-04-18 12:46:00,64.1,60.5,29.63,SW,225,8.0,19.0,88,0.00,,---,0.01,VWS V14.01,2013-04-18 16:46:00,
2013-04-18 13:01:00,63.3,60.3,29.64,SSW,192,6.0,18.0,90,0.00,,---,0.01,VWS V14.01,2013-04-18 17:01:00,
2013-04-18 13:16:00,62.3,60.0,29.64,SSW,207,6.0,16.0,92,0.00,,---,0.01,VWS V14.01,2013-04-18 17:16:00,
2013-04-18 13:31:00,62.0,59.7,29.63,SSW,202,8.0,20.0,92,0.00,,---,0.01,VWS V14.01,2013-04-18 17:31:00,
2013-04-18 13:46:00,62.0,60.0,29.63,SSW,205,8.0,13.0,93,0.00,,---,0.01,VWS V14.01,2013-04-18 17:46:00,
2013-04-18 14:16:00,61.9,59.9,29.65,SSW,204,8.0,15.0,93,0.00,,---,0.01,VWS V14.01,2013-04-18 18:16:00,
2013-04-18 14:31:00,61.7,59.7,29.65,SSW,199,8.0,15.0,93,0.00,,---,0.01,VWS V14.01,2013-04-18 18:31:00,
2013-04-18 14:46:00,61.6,59.6,29.65,SSW,200,7.0,14.0,93,0.00,,---,0.01,VWS V14.01,2013-04-18 18:46:00,
2013-04-18 15:01:00,61.7,60.0,29.64,SW,229,8.0,12.0,94,0.00,,---,0.01,VWS V14.01,2013-04-18 19:01:00,
2013-04-18 15:16:00,61.7,60.0,29.65,SSW,193,6.0,13.0,94,0.00,,---,0.01,VWS V14.01,2013-04-18 19:16:00,
2013-04-18 15:31:00,61.7,59.7,29.64,SW,221,5.0,16.0,93,0.00,,---,0.01,VWS V14.01,2013-04-18 19:31:00,
2013-04-18 16:01:00,61.8,59.8,29.63,South,182,6.0,14.0,93,0.00,,---,0.01,VWS V14.01,2013-04-18 20:01:00,
2013-04-18 16:16:00,61.6,59.6,29.64,SSW,198,7.0,12.0,93,0.00,,---,0.01,VWS V14.01,2013-04-18 20:16:00,
2013-04-18 16:31:00,61.6,59.6,29.64,South,190,6.0,16.0,93,0.00,,---,0.01,VWS V14.01,2013-04-18 20:31:00,
2013-04-18 16:46:00,61.8,59.8,29.64,South,187,7.0,14.0,93,0.00,,---,0.01,VWS V14.01,2013-04-18 20:46:00,
2013-04-18 17:01:00,61.3,59.3,29.64,SSW,204,7.0,14.0,93,0.01,,---,0.02,VWS V14.01,2013-04-18 21:01:00,
2013-04-18 17:31:00,60.6,58.9,29.63,South,189,6.0,12.0,94,0.01,,---,0.02,VWS V14.01,2013-04-18 21:31:00,
2013-04-18 17:46:00,60.4,59.0,29.63,SSW,204,7.0,11.0,95,0.01,,---,0.02,VWS V14.01,2013-04-18 21:46:00,
2013-04-18 18:01:00,60.2,58.8,29.62,South,185,5.0,11.0,95,0.01,,---,0.02,VWS V14.01,2013-04-18 22:01:00,
2013-04-18 18:16:00,59.9,58.5,29.62,West,259,2.0,14.0,95,0.00,,---,0.02,VWS V14.01,2013-04-18 22:16:00,
2013-04-18 18:31:00,59.6,58.2,29.60,South,180,6.0,17.0,95,0.00,,---,0.02,VWS V14.01,2013-04-18 22:31:00,
2013-04-18 18:46:00,59.4,58.0,29.61,South,185,3.0,15.0,95,0.00,,---,0.02,VWS V14.01,2013-04-18 22:46:00,
2013-04-18 19:01:00,59.3,57.9,29.62,South,181,7.0,13.0,95,0.00,,---,0.02,VWS V14.01,2013-04-18 23:01:00,
2013-04-18 19:16:00,59.3,57.9,29.61,SE,135,10.0,19.0,95,0.00,,---,0.02,VWS V14.01,2013-04-18 23:16:00,
2013-04-18 19:31:00,59.2,57.8,29.58,SSE,164,4.0,17.0,95,0.00,,---,0.02,VWS V14.01,2013-04-18 23:31:00,
2013-04-18 19:46:00,59.3,57.6,29.55,SE,134,5.0,16.0,94,0.00,,---,0.02,VWS V14.01,2013-04-18 23:46:00,
2013-04-18 20:01:00,59.5,57.5,29.55,South,176,5.0,15.0,93,0.00,,---,0.02,VWS V14.01,2013-04-19 00:01:00,
2013-04-18 20:16:00,59.5,57.5,29.55,SE,142,9.0,15.0,93,0.00,,---,0.02,VWS V14.01,2013-04-19 00:16:00,
2013-04-18 20:31:00,59.2,57.2,29.51,ESE,113,11.0,18.0,93,0.00,,---,0.02,VWS V14.01,2013-04-19 00:31:00,
2013-04-18 20:46:00,59.2,57.5,29.51,SE,132,9.0,20.0,94,0.00,,---,0.02,VWS V14.01,2013-04-19 00:46:00,
2013-04-18 21:01:00,59.0,57.3,29.53,SE,144,15.0,23.0,94,0.00,,---,0.02,VWS V14.01,2013-04-19 01:01:00,
2013-04-18 21:16:00,58.8,57.1,29.53,SSE,149,3.0,24.0,94,0.00,,---,0.02,VWS V14.01,2013-04-19 01:16:00,
2013-04-18 21:31:00,58.7,57.0,29.53,South,182,19.0,20.0,94,0.00,,---,0.02,VWS V14.01,2013-04-19 01:31:00,
2013-04-18 21:46:00,58.6,56.9,29.54,South,185,10.0,21.0,94,0.00,,---,0.02,VWS V14.01,2013-04-19 01:46:00,
2013-04-18 22:01:00,58.4,56.7,29.53,South,171,8.0,17.0,94,0.00,,---,0.02,VWS V14.01,2013-04-19 02:01:00,
2013-04-18 22:16:00,58.3,56.6,29.53,SE,127,14.0,21.0,94,0.00,,---,0.02,VWS V14.01,2013-04-19 02:16:00,
2013-04-18 22:31:00,58.3,56.9,29.52,SSE,155,7.0,16.0,95,0.00,,---,0.02,VWS V14.01,2013-04-19 02:31:00,
2013-04-18 22:46:00,58.3,56.9,29.51,SSE,148,9.0,14.0,95,0.00,,---,0.02,VWS V14.01,2013-04-19 02:46:00,
2013-04-18 23:01:00,58.4,57.0,29.51,SSE,148,5.0,15.0,95,0.00,,---,0.02,VWS V14.01,2013-04-19 03:01:00,
2013-04-18 23:16:00,56.1,54.1,29.54,South,190,7.0,22.0,93,0.00,,---,0.02,VWS V14.01,2013-04-19 03:16:00,
2013-04-18 23:31:00,54.5,52.8,29.52,WSW,256,4.0,16.0,94,0.00,,---,0.02,VWS V14.01,2013-04-19 03:31:00,
2013-04-18 23:46:00,53.9,52.5,29.52,SW,217,4.0,14.0,95,0.00,,---,0.02,VWS V14.01,2013-04-19 03:46:00,